sensor_id;sensor_type;location;lat;lon;timestamp;pressure;altitude;pressure_sealevel;temperature;humidity
16690;BME280;8458;52.220;9.884;2023-04-02T00:01:34;100389.25;;;4.26;100.00
16690;BME280;8458;52.220;9.884;2023-04-02T00:04:11;100401.28;;;4.25;100.00
16690;BME280;8458;52.220;9.884;2023-04-02T00:06:38;100400.44;;;4.25;100.00
16690;BME280;8458;52.220;9.884;2023-04-02T00:09:28;100400.06;;;4.21;100.00
16690;BME280;8458;52.220;9.884;2023-04-02T00:11:56;100404.56;;;4.34;100.00
16690;BME280;8458;52.220;9.884;2023-04-02T00:14:26;100415.22;;;4.24;100.00
16690;BME280;8458;52.220;9.884;2023-04-02T00:16:55;100420.34;;;4.20;100.00
16690;BME280;8458;52.220;9.884;2023-04-02T00:19:29;100424.84;;;4.15;100.00
16690;BME280;8458;52.220;9.884;2023-04-02T00:21:57;100433.06;;;4.15;100.00
16690;BME280;8458;52.220;9.884;2023-04-02T00:24:25;100438.25;;;4.04;99.36
16690;BME280;8458;52.220;9.884;2023-04-02T00:26:53;100441.06;;;4.16;99.31
16690;BME280;8458;52.220;9.884;2023-04-02T00:29:20;100443.81;;;4.16;98.47
16690;BME280;8458;52.220;9.884;2023-04-02T00:31:49;100446.47;;;4.23;97.97
16690;BME280;8458;52.220;9.884;2023-04-02T00:34:19;100463.59;;;4.25;98.40
16690;BME280;8458;52.220;9.884;2023-04-02T00:36:48;100459.69;;;4.14;97.64
16690;BME280;8458;52.220;9.884;2023-04-02T00:39:18;100463.13;;;4.09;97.28
16690;BME280;8458;52.220;9.884;2023-04-02T00:41:46;100466.13;;;4.01;96.10
16690;BME280;8458;52.220;9.884;2023-04-02T00:44:13;100466.47;;;4.11;97.23
16690;BME280;8458;52.220;9.884;2023-04-02T00:46:46;100471.50;;;4.15;96.13
16690;BME280;8458;52.220;9.884;2023-04-02T00:49:20;100483.84;;;4.05;96.14
16690;BME280;8458;52.220;9.884;2023-04-02T00:51:52;100485.81;;;4.17;95.34
16690;BME280;8458;52.220;9.884;2023-04-02T00:54:22;100484.84;;;4.11;95.10
16690;BME280;8458;52.220;9.884;2023-04-02T00:56:52;100485.66;;;4.11;95.20
16690;BME280;8458;52.220;9.884;2023-04-02T00:59:25;100490.47;;;4.16;95.32
16690;BME280;8458;52.220;9.884;2023-04-02T01:01:55;100492.22;;;4.10;94.10
16690;BME280;8458;52.220;9.884;2023-04-02T01:04:32;100498.75;;;3.91;93.99
16690;BME280;8458;52.220;9.884;2023-04-02T01:07:02;100494.50;;;3.95;94.91
16690;BME280;8458;52.220;9.884;2023-04-02T01:09:41;100502.31;;;3.91;94.29
16690;BME280;8458;52.220;9.884;2023-04-02T01:12:22;100507.06;;;4.03;94.09
16690;BME280;8458;52.220;9.884;2023-04-02T01:14:57;100519.28;;;4.07;94.26
16690;BME280;8458;52.220;9.884;2023-04-02T01:17:37;100513.25;;;4.17;94.00
16690;BME280;8458;52.220;9.884;2023-04-02T01:20:31;100520.81;;;4.21;93.38
16690;BME280;8458;52.220;9.884;2023-04-02T01:23:07;100524.91;;;4.12;92.84
16690;BME280;8458;52.220;9.884;2023-04-02T01:25:42;100530.63;;;4.10;92.52
16690;BME280;8458;52.220;9.884;2023-04-02T01:28:15;100534.28;;;4.04;91.26
16690;BME280;8458;52.220;9.884;2023-04-02T01:30:48;100537.66;;;4.06;90.23
16690;BME280;8458;52.220;9.884;2023-04-02T01:33:16;100542.66;;;3.91;90.96
16690;BME280;8458;52.220;9.884;2023-04-02T01:35:46;100548.91;;;3.98;91.15
16690;BME280;8458;52.220;9.884;2023-04-02T01:38:19;100547.16;;;4.04;91.30
16690;BME280;8458;52.220;9.884;2023-04-02T01:40:53;100556.47;;;4.03;90.61
16690;BME280;8458;52.220;9.884;2023-04-02T01:43:28;100565.38;;;3.98;89.55
16690;BME280;8458;52.220;9.884;2023-04-02T01:46:04;100569.91;;;3.86;88.17
16690;BME280;8458;52.220;9.884;2023-04-02T01:48:31;100569.28;;;3.84;88.86
16690;BME280;8458;52.220;9.884;2023-04-02T01:50:59;100577.75;;;3.82;89.28
16690;BME280;8458;52.220;9.884;2023-04-02T01:53:28;100595.53;;;3.73;88.61
16690;BME280;8458;52.220;9.884;2023-04-02T01:55:58;100597.00;;;3.75;89.22
16690;BME280;8458;52.220;9.884;2023-04-02T01:58:27;100605.22;;;3.75;88.65
16690;BME280;8458;52.220;9.884;2023-04-02T02:01:00;100611.16;;;3.72;89.03
16690;BME280;8458;52.220;9.884;2023-04-02T02:03:28;100607.97;;;3.75;87.72
16690;BME280;8458;52.220;9.884;2023-04-02T02:05:55;100616.38;;;3.81;87.71
16690;BME280;8458;52.220;9.884;2023-04-02T02:08:30;100615.16;;;3.76;88.57
16690;BME280;8458;52.220;9.884;2023-04-02T02:10:58;100616.84;;;3.71;88.25
16690;BME280;8458;52.220;9.884;2023-04-02T02:13:25;100623.16;;;3.78;88.02
16690;BME280;8458;52.220;9.884;2023-04-02T02:15:56;100631.59;;;3.76;88.48
16690;BME280;8458;52.220;9.884;2023-04-02T02:18:24;100636.00;;;3.77;88.75
16690;BME280;8458;52.220;9.884;2023-04-02T02:20:52;100636.00;;;3.77;87.55
16690;BME280;8458;52.220;9.884;2023-04-02T02:23:20;100641.94;;;3.74;87.22
16690;BME280;8458;52.220;9.884;2023-04-02T02:25:46;100649.56;;;3.72;87.13
16690;BME280;8458;52.220;9.884;2023-04-02T02:28:17;100646.19;;;3.70;86.71
16690;BME280;8458;52.220;9.884;2023-04-02T02:30:49;100658.47;;;3.61;87.09
16690;BME280;8458;52.220;9.884;2023-04-02T02:33:19;100660.97;;;3.69;87.60
16690;BME280;8458;52.220;9.884;2023-04-02T02:35:52;100671.13;;;3.62;88.54
16690;BME280;8458;52.220;9.884;2023-04-02T02:38:36;100674.06;;;3.67;88.00
16690;BME280;8458;52.220;9.884;2023-04-02T02:41:06;100681.66;;;3.65;87.77
16690;BME280;8458;52.220;9.884;2023-04-02T02:43:38;100688.59;;;3.68;88.22
16690;BME280;8458;52.220;9.884;2023-04-02T02:46:09;100686.03;;;3.73;87.25
16690;BME280;8458;52.220;9.884;2023-04-02T02:48:39;100691.31;;;3.74;86.72
16690;BME280;8458;52.220;9.884;2023-04-02T02:51:16;100700.84;;;3.72;86.02
16690;BME280;8458;52.220;9.884;2023-04-02T02:53:49;100709.72;;;3.67;87.29
16690;BME280;8458;52.220;9.884;2023-04-02T02:56:18;100706.16;;;3.60;86.76
16690;BME280;8458;52.220;9.884;2023-04-02T02:58:46;100713.06;;;3.69;85.96
16690;BME280;8458;52.220;9.884;2023-04-02T03:01:13;100723.44;;;3.67;86.99
16690;BME280;8458;52.220;9.884;2023-04-02T03:03:40;100720.88;;;3.72;86.77
16690;BME280;8458;52.220;9.884;2023-04-02T03:06:09;100729.50;;;3.76;84.89
16690;BME280;8458;52.220;9.884;2023-04-02T03:08:43;100723.00;;;3.70;84.25
16690;BME280;8458;52.220;9.884;2023-04-02T03:11:13;100729.78;;;3.61;84.30
16690;BME280;8458;52.220;9.884;2023-04-02T03:13:45;100740.97;;;3.59;84.90
16690;BME280;8458;52.220;9.884;2023-04-02T03:16:17;100740.34;;;3.51;84.47
16690;BME280;8458;52.220;9.884;2023-04-02T03:18:51;100749.66;;;3.43;85.15
16690;BME280;8458;52.220;9.884;2023-04-02T03:21:26;100757.28;;;3.34;85.20
16690;BME280;8458;52.220;9.884;2023-04-02T03:23:55;100764.03;;;3.38;85.41
16690;BME280;8458;52.220;9.884;2023-04-02T03:26:26;100772.47;;;3.30;86.31
16690;BME280;8458;52.220;9.884;2023-04-02T03:28:59;100770.34;;;3.39;85.86
16690;BME280;8458;52.220;9.884;2023-04-02T03:31:32;100775.84;;;3.32;86.41
16690;BME280;8458;52.220;9.884;2023-04-02T03:34:03;100783.25;;;3.32;86.98
16690;BME280;8458;52.220;9.884;2023-04-02T03:36:37;100776.47;;;3.34;86.31
16690;BME280;8458;52.220;9.884;2023-04-02T03:39:12;100785.72;;;3.47;85.94
16690;BME280;8458;52.220;9.884;2023-04-02T03:41:43;100792.28;;;3.46;85.67
16690;BME280;8458;52.220;9.884;2023-04-02T03:44:20;100793.94;;;3.47;84.72
16690;BME280;8458;52.220;9.884;2023-04-02T03:46:52;100806.16;;;3.51;84.64
16690;BME280;8458;52.220;9.884;2023-04-02T03:49:27;100806.56;;;3.54;83.76
16690;BME280;8458;52.220;9.884;2023-04-02T03:51:58;100803.59;;;3.56;83.47
16690;BME280;8458;52.220;9.884;2023-04-02T03:54:27;100812.91;;;3.55;82.99
16690;BME280;8458;52.220;9.884;2023-04-02T03:56:53;100812.28;;;3.53;82.34
16690;BME280;8458;52.220;9.884;2023-04-02T03:59:26;100826.41;;;3.50;82.51
16690;BME280;8458;52.220;9.884;2023-04-02T04:01:58;100826.41;;;3.50;82.58
16690;BME280;8458;52.220;9.884;2023-04-02T04:04:27;100833.59;;;3.51;82.05
16690;BME280;8458;52.220;9.884;2023-04-02T04:06:56;100838.88;;;3.46;82.57
16690;BME280;8458;52.220;9.884;2023-04-02T04:09:25;100842.84;;;3.50;83.19
16690;BME280;8458;52.220;9.884;2023-04-02T04:12:01;100841.63;;;3.46;83.37
16690;BME280;8458;52.220;9.884;2023-04-02T04:14:34;100858.47;;;3.49;84.12
16690;BME280;8458;52.220;9.884;2023-04-02T04:17:08;100859.31;;;3.50;84.31
16690;BME280;8458;52.220;9.884;2023-04-02T04:19:41;100858.44;;;3.56;83.58
16690;BME280;8458;52.220;9.884;2023-04-02T04:22:14;100865.00;;;3.55;82.75
16690;BME280;8458;52.220;9.884;2023-04-02T04:24:42;100870.69;;;3.60;83.14
16690;BME280;8458;52.220;9.884;2023-04-02T04:27:14;100878.06;;;3.66;82.29
16690;BME280;8458;52.220;9.884;2023-04-02T04:29:48;100883.78;;;3.58;82.12
16690;BME280;8458;52.220;9.884;2023-04-02T04:32:23;100888.19;;;3.59;81.49
16690;BME280;8458;52.220;9.884;2023-04-02T04:34:58;100888.41;;;3.57;80.61
16690;BME280;8458;52.220;9.884;2023-04-02T04:37:31;100898.97;;;3.47;81.96
16690;BME280;8458;52.220;9.884;2023-04-02T04:40:02;100904.47;;;3.47;81.95
16690;BME280;8458;52.220;9.884;2023-04-02T04:42:33;100910.78;;;3.48;82.12
16690;BME280;8458;52.220;9.884;2023-04-02T04:45:07;100911.41;;;3.56;82.24
16690;BME280;8458;52.220;9.884;2023-04-02T04:47:36;100908.47;;;3.58;82.13
16690;BME280;8458;52.220;9.884;2023-04-02T04:50:06;100917.94;;;3.55;81.29
16690;BME280;8458;52.220;9.884;2023-04-02T04:52:37;100925.56;;;3.53;80.69
16690;BME280;8458;52.220;9.884;2023-04-02T04:55:20;100928.69;;;3.44;79.52
16690;BME280;8458;52.220;9.884;2023-04-02T04:57:49;100932.72;;;3.41;80.03
16690;BME280;8458;52.220;9.884;2023-04-02T05:00:19;100952.34;;;3.38;79.50
16690;BME280;8458;52.220;9.884;2023-04-02T05:02:52;100945.34;;;3.22;81.90
16690;BME280;8458;52.220;9.884;2023-04-02T05:05:24;100946.00;;;3.24;81.55
16690;BME280;8458;52.220;9.884;2023-04-02T05:07:59;100955.47;;;3.28;81.65
16690;BME280;8458;52.220;9.884;2023-04-02T05:10:30;100957.59;;;3.26;82.02
16690;BME280;8458;52.220;9.884;2023-04-02T05:13:03;100962.03;;;3.40;80.78
16690;BME280;8458;52.220;9.884;2023-04-02T05:15:32;100973.00;;;3.40;80.43
16690;BME280;8458;52.220;9.884;2023-04-02T05:18:11;100980.78;;;3.44;81.23
16690;BME280;8458;52.220;9.884;2023-04-02T05:20:45;100983.94;;;3.40;80.00
16690;BME280;8458;52.220;9.884;2023-04-02T05:23:19;100987.56;;;3.41;80.95
16690;BME280;8458;52.220;9.884;2023-04-02T05:25:51;100998.09;;;3.37;80.53
16690;BME280;8458;52.220;9.884;2023-04-02T05:28:24;100990.09;;;3.43;79.02
16690;BME280;8458;52.220;9.884;2023-04-02T05:30:58;100996.00;;;3.39;79.53
16690;BME280;8458;52.220;9.884;2023-04-02T05:33:28;100997.25;;;3.44;80.45
16690;BME280;8458;52.220;9.884;2023-04-02T05:35:58;101005.25;;;3.45;80.92
16690;BME280;8458;52.220;9.884;2023-04-02T05:38:29;101013.50;;;3.38;80.39
16690;BME280;8458;52.220;9.884;2023-04-02T05:40:59;101011.59;;;3.39;80.10
16690;BME280;8458;52.220;9.884;2023-04-02T05:43:29;101014.13;;;3.27;81.29
16690;BME280;8458;52.220;9.884;2023-04-02T05:46:01;101014.13;;;3.40;81.46
16690;BME280;8458;52.220;9.884;2023-04-02T05:48:35;101024.03;;;3.41;81.57
16690;BME280;8458;52.220;9.884;2023-04-02T05:51:04;101028.06;;;3.46;80.74
16690;BME280;8458;52.220;9.884;2023-04-02T05:53:37;101037.13;;;3.53;79.65
16690;BME280;8458;52.220;9.884;2023-04-02T05:56:10;101043.69;;;3.52;79.76
16690;BME280;8458;52.220;9.884;2023-04-02T05:58:43;101044.50;;;3.59;80.58
16690;BME280;8458;52.220;9.884;2023-04-02T06:01:18;101055.28;;;3.67;80.32
16690;BME280;8458;52.220;9.884;2023-04-02T06:03:51;101062.03;;;3.71;79.54
16690;BME280;8458;52.220;9.884;2023-04-02T06:06:28;101059.50;;;3.76;79.47
16690;BME280;8458;52.220;9.884;2023-04-02T06:09:04;101070.28;;;3.78;79.72
16690;BME280;8458;52.220;9.884;2023-04-02T06:11:39;101074.91;;;3.77;79.76
16690;BME280;8458;52.220;9.884;2023-04-02T06:14:08;101078.69;;;3.70;80.59
16690;BME280;8458;52.220;9.884;2023-04-02T06:16:35;101077.22;;;3.67;80.53
16690;BME280;8458;52.220;9.884;2023-04-02T06:19:09;101079.34;;;3.72;80.29
16690;BME280;8458;52.220;9.884;2023-04-02T06:21:42;101086.72;;;3.85;79.99
16690;BME280;8458;52.220;9.884;2023-04-02T06:24:12;101089.28;;;3.80;79.43
16690;BME280;8458;52.220;9.884;2023-04-02T06:26:42;101096.84;;;3.77;79.59
16690;BME280;8458;52.220;9.884;2023-04-02T06:29:14;101105.50;;;3.61;79.88
16690;BME280;8458;52.220;9.884;2023-04-02T06:31:45;101111.19;;;3.66;79.77
16690;BME280;8458;52.220;9.884;2023-04-02T06:34:14;101117.31;;;3.68;79.90
16690;BME280;8458;52.220;9.884;2023-04-02T06:36:43;101119.41;;;3.59;79.63
16690;BME280;8458;52.220;9.884;2023-04-02T06:39:17;101136.50;;;3.62;79.33
16690;BME280;8458;52.220;9.884;2023-04-02T06:41:45;101128.72;;;3.72;79.52
16690;BME280;8458;52.220;9.884;2023-04-02T06:44:15;101129.34;;;3.81;79.40
16690;BME280;8458;52.220;9.884;2023-04-02T06:46:44;101131.25;;;3.87;79.08
16690;BME280;8458;52.220;9.884;2023-04-02T06:49:17;101136.13;;;3.78;78.47
16690;BME280;8458;52.220;9.884;2023-04-02T06:51:46;101139.69;;;3.85;78.46
16690;BME280;8458;52.220;9.884;2023-04-02T06:54:16;101156.81;;;3.87;78.51
16690;BME280;8458;52.220;9.884;2023-04-02T06:56:45;101159.78;;;3.86;78.28
16690;BME280;8458;52.220;9.884;2023-04-02T06:59:12;101162.25;;;3.81;78.41
16690;BME280;8458;52.220;9.884;2023-04-02T07:01:43;101158.06;;;3.91;77.90
16690;BME280;8458;52.220;9.884;2023-04-02T07:04:12;101163.13;;;3.88;77.44
16690;BME280;8458;52.220;9.884;2023-04-02T07:06:38;101168.16;;;3.77;76.57
16690;BME280;8458;52.220;9.884;2023-04-02T07:09:05;101176.66;;;3.83;76.88
16690;BME280;8458;52.220;9.884;2023-04-02T07:11:34;101185.50;;;3.78;77.19
16690;BME280;8458;52.220;9.884;2023-04-02T07:14:00;101187.78;;;3.74;76.34
16690;BME280;8458;52.220;9.884;2023-04-02T07:16:29;101192.03;;;3.84;76.23
16690;BME280;8458;52.220;9.884;2023-04-02T07:18:56;101192.03;;;3.84;76.03
16690;BME280;8458;52.220;9.884;2023-04-02T07:21:24;101209.38;;;3.91;75.33
16690;BME280;8458;52.220;9.884;2023-04-02T07:23:50;101213.56;;;3.80;75.61
16690;BME280;8458;52.220;9.884;2023-04-02T07:26:19;101208.69;;;3.75;76.92
16690;BME280;8458;52.220;9.884;2023-04-02T07:28:48;101224.28;;;3.68;77.10
16690;BME280;8458;52.220;9.884;2023-04-02T07:31:16;101223.84;;;3.65;77.25
16690;BME280;8458;52.220;9.884;2023-04-02T07:33:44;101224.06;;;3.63;77.20
16690;BME280;8458;52.220;9.884;2023-04-02T07:36:14;101225.50;;;3.59;78.39
16690;BME280;8458;52.220;9.884;2023-04-02T07:38:41;101236.53;;;3.66;78.45
16690;BME280;8458;52.220;9.884;2023-04-02T07:41:08;101236.31;;;3.67;78.41
16690;BME280;8458;52.220;9.884;2023-04-02T07:43:35;101248.34;;;3.66;78.17
16690;BME280;8458;52.220;9.884;2023-04-02T07:46:03;101249.38;;;3.65;78.80
16690;BME280;8458;52.220;9.884;2023-04-02T07:48:31;101246.22;;;3.68;79.13
16690;BME280;8458;52.220;9.884;2023-04-02T07:50:57;101258.47;;;3.72;78.76
16690;BME280;8458;52.220;9.884;2023-04-02T07:53:26;101260.38;;;3.72;78.62
16690;BME280;8458;52.220;9.884;2023-04-02T07:55:54;101266.94;;;3.77;80.03
16690;BME280;8458;52.220;9.884;2023-04-02T07:58:20;101269.25;;;3.81;78.95
16690;BME280;8458;52.220;9.884;2023-04-02T08:00:47;101267.19;;;3.83;77.69
16690;BME280;8458;52.220;9.884;2023-04-02T08:03:15;101273.09;;;3.80;76.89
16690;BME280;8458;52.220;9.884;2023-04-02T08:05:41;101281.72;;;3.76;76.31
16690;BME280;8458;52.220;9.884;2023-04-02T08:08:08;101284.47;;;3.76;76.94
16690;BME280;8458;52.220;9.884;2023-04-02T08:10:34;101287.84;;;3.79;78.52
16690;BME280;8458;52.220;9.884;2023-04-02T08:13:01;101302.38;;;3.79;78.71
16690;BME280;8458;52.220;9.884;2023-04-02T08:15:27;101304.31;;;3.79;78.11
16690;BME280;8458;52.220;9.884;2023-04-02T08:17:54;101307.47;;;3.82;77.47
16690;BME280;8458;52.220;9.884;2023-04-02T08:20:22;101313.81;;;3.83;77.48
16690;BME280;8458;52.220;9.884;2023-04-02T08:22:49;101312.75;;;3.84;78.46
16690;BME280;8458;52.220;9.884;2023-04-02T08:25:16;101317.84;;;3.87;79.56
16690;BME280;8458;52.220;9.884;2023-04-02T08:27:45;101331.81;;;3.99;78.69
16690;BME280;8458;52.220;9.884;2023-04-02T08:30:13;101329.06;;;3.92;80.06
16690;BME280;8458;52.220;9.884;2023-04-02T08:32:40;101335.41;;;3.99;80.34
16690;BME280;8458;52.220;9.884;2023-04-02T08:35:07;101333.75;;;4.11;79.01
16690;BME280;8458;52.220;9.884;2023-04-02T08:37:35;101344.66;;;3.98;80.14
16690;BME280;8458;52.220;9.884;2023-04-02T08:40:02;101345.53;;;3.92;80.12
16690;BME280;8458;52.220;9.884;2023-04-02T08:42:33;101348.94;;;4.07;79.84
16690;BME280;8458;52.220;9.884;2023-04-02T08:45:10;101363.34;;;4.23;80.18
16690;BME280;8458;52.220;9.884;2023-04-02T08:47:47;101354.50;;;4.27;79.22
16690;BME280;8458;52.220;9.884;2023-04-02T08:50:22;101359.97;;;4.27;80.13
16690;BME280;8458;52.220;9.884;2023-04-02T08:52:53;101361.25;;;4.25;79.59
16690;BME280;8458;52.220;9.884;2023-04-02T08:55:30;101364.22;;;4.30;79.12
16690;BME280;8458;52.220;9.884;2023-04-02T08:58:01;101367.59;;;4.32;79.15
16690;BME280;8458;52.220;9.884;2023-04-02T09:00:34;101369.53;;;4.38;78.95
16690;BME280;8458;52.220;9.884;2023-04-02T09:03:05;101368.88;;;4.36;78.78
16690;BME280;8458;52.220;9.884;2023-04-02T09:05:36;101375.25;;;4.43;79.00
16690;BME280;8458;52.220;9.884;2023-04-02T09:08:15;101382.88;;;4.55;79.32
16690;BME280;8458;52.220;9.884;2023-04-02T09:10:49;101378.25;;;4.62;77.85
16690;BME280;8458;52.220;9.884;2023-04-02T09:13:21;101392.84;;;4.62;78.80
16690;BME280;8458;52.220;9.884;2023-04-02T09:15:49;101399.16;;;4.63;78.79
16690;BME280;8458;52.220;9.884;2023-04-02T09:18:18;101395.38;;;4.71;79.25
16690;BME280;8458;52.220;9.884;2023-04-02T09:20:45;101410.81;;;4.78;78.43
16690;BME280;8458;52.220;9.884;2023-04-02T09:23:17;101413.81;;;4.83;76.91
16690;BME280;8458;52.220;9.884;2023-04-02T09:25:48;101416.97;;;4.80;77.82
16690;BME280;8458;52.220;9.884;2023-04-02T09:28:17;101417.56;;;4.62;77.95
16690;BME280;8458;52.220;9.884;2023-04-02T09:30:55;101425.19;;;4.74;78.60
16690;BME280;8458;52.220;9.884;2023-04-02T09:33:39;101431.56;;;4.81;77.82
16690;BME280;8458;52.220;9.884;2023-04-02T09:36:16;101432.38;;;4.68;77.20
16690;BME280;8458;52.220;9.884;2023-04-02T09:38:57;101432.59;;;4.73;76.57
16690;BME280;8458;52.220;9.884;2023-04-02T09:41:26;101437.03;;;4.74;76.53
16690;BME280;8458;52.220;9.884;2023-04-02T09:44:11;101444.63;;;4.72;76.38
16690;BME280;8458;52.220;9.884;2023-04-02T09:46:50;101449.28;;;4.78;76.29
16690;BME280;8458;52.220;9.884;2023-04-02T09:49:20;101461.53;;;4.69;76.58
16690;BME280;8458;52.220;9.884;2023-04-02T09:52:06;101458.09;;;4.54;76.44
16690;BME280;8458;52.220;9.884;2023-04-02T09:54:34;101466.59;;;4.59;77.20
16690;BME280;8458;52.220;9.884;2023-04-02T09:57:17;101478.47;;;4.73;77.64
16690;BME280;8458;52.220;9.884;2023-04-02T09:59:45;101477.00;;;4.83;76.93
16690;BME280;8458;52.220;9.884;2023-04-02T10:02:23;101473.84;;;4.87;76.66
16690;BME280;8458;52.220;9.884;2023-04-02T10:04:51;101494.13;;;4.85;75.72
16690;BME280;8458;52.220;9.884;2023-04-02T10:07:37;101493.03;;;4.73;74.31
16690;BME280;8458;52.220;9.884;2023-04-02T10:10:17;101496.41;;;4.69;74.38
16690;BME280;8458;52.220;9.884;2023-04-02T10:12:48;101500.41;;;4.66;75.19
16690;BME280;8458;52.220;9.884;2023-04-02T10:15:20;101511.59;;;4.64;74.80
16690;BME280;8458;52.220;9.884;2023-04-02T10:17:56;101508.69;;;4.79;74.47
16690;BME280;8458;52.220;9.884;2023-04-02T10:20:26;101511.50;;;4.93;74.23
16690;BME280;8458;52.220;9.884;2023-04-02T10:22:53;101511.03;;;4.82;73.87
16690;BME280;8458;52.220;9.884;2023-04-02T10:25:24;101514.41;;;4.84;73.74
16690;BME280;8458;52.220;9.884;2023-04-02T10:27:56;101515.50;;;4.97;74.10
16690;BME280;8458;52.220;9.884;2023-04-02T10:30:37;101532.47;;;5.07;73.31
16690;BME280;8458;52.220;9.884;2023-04-02T10:33:12;101536.44;;;4.98;72.99
16690;BME280;8458;52.220;9.884;2023-04-02T10:35:47;101529.28;;;5.10;72.29
16690;BME280;8458;52.220;9.884;2023-04-02T10:38:30;101537.75;;;5.09;73.23
16690;BME280;8458;52.220;9.884;2023-04-02T10:41:14;101542.41;;;5.08;73.30
16690;BME280;8458;52.220;9.884;2023-04-02T10:44:04;101538.63;;;5.23;72.51
16690;BME280;8458;52.220;9.884;2023-04-02T10:46:37;101538.00;;;5.20;71.92
16690;BME280;8458;52.220;9.884;2023-04-02T10:49:14;101538.63;;;5.23;72.22
16690;BME280;8458;52.220;9.884;2023-04-02T10:51:52;101548.78;;;5.29;71.75
16690;BME280;8458;52.220;9.884;2023-04-02T10:54:40;101538.22;;;5.32;71.60
16690;BME280;8458;52.220;9.884;2023-04-02T10:57:15;101542.03;;;5.45;70.82
16690;BME280;8458;52.220;9.884;2023-04-02T10:59:46;101555.16;;;5.43;71.72
16690;BME280;8458;52.220;9.884;2023-04-02T11:02:23;101550.94;;;5.53;71.03
16690;BME280;8458;52.220;9.884;2023-04-02T11:04:54;101547.75;;;5.50;70.67
16690;BME280;8458;52.220;9.884;2023-04-02T11:07:23;101558.97;;;5.42;71.29
16690;BME280;8458;52.220;9.884;2023-04-02T11:09:55;101559.81;;;5.35;70.56
16690;BME280;8458;52.220;9.884;2023-04-02T11:12:29;101557.72;;;5.44;70.37
16690;BME280;8458;52.220;9.884;2023-04-02T11:14:59;101562.38;;;5.57;70.25
16690;BME280;8458;52.220;9.884;2023-04-02T11:17:26;101571.03;;;5.61;69.08
16690;BME280;8458;52.220;9.884;2023-04-02T11:19:52;101574.66;;;5.68;69.90
16690;BME280;8458;52.220;9.884;2023-04-02T11:22:21;101573.81;;;5.74;69.66
16690;BME280;8458;52.220;9.884;2023-04-02T11:24:49;101576.16;;;5.70;69.21
16690;BME280;8458;52.220;9.884;2023-04-02T11:27:24;101579.31;;;5.74;69.20
16690;BME280;8458;52.220;9.884;2023-04-02T11:29:57;101582.06;;;5.74;69.14
16690;BME280;8458;52.220;9.884;2023-04-02T11:32:37;101581.03;;;5.75;70.29
16690;BME280;8458;52.220;9.884;2023-04-02T11:35:24;101578.03;;;5.90;68.26
16690;BME280;8458;52.220;9.884;2023-04-02T11:37:52;101595.84;;;5.87;69.43
16690;BME280;8458;52.220;9.884;2023-04-02T11:40:45;101591.63;;;6.05;66.98
16690;BME280;8458;52.220;9.884;2023-04-02T11:43:47;101595.88;;;6.14;67.32
16690;BME280;8458;52.220;9.884;2023-04-02T11:46:48;101598.00;;;6.12;65.96
16690;BME280;8458;52.220;9.884;2023-04-02T11:49:36;101605.19;;;6.06;65.50
16690;BME280;8458;52.220;9.884;2023-04-02T11:52:18;101606.03;;;5.93;67.20
16690;BME280;8458;52.220;9.884;2023-04-02T11:54:54;101609.63;;;6.01;68.18
16690;BME280;8458;52.220;9.884;2023-04-02T11:57:30;101615.78;;;6.03;68.76
16690;BME280;8458;52.220;9.884;2023-04-02T12:00:18;101619.16;;;6.12;68.56
16690;BME280;8458;52.220;9.884;2023-04-02T12:02:55;101614.09;;;6.15;67.88
16690;BME280;8458;52.220;9.884;2023-04-02T12:05:31;101634.19;;;6.22;67.48
16690;BME280;8458;52.220;9.884;2023-04-02T12:08:14;101625.94;;;6.22;67.41
16690;BME280;8458;52.220;9.884;2023-04-02T12:10:57;101630.19;;;6.25;66.99
16690;BME280;8458;52.220;9.884;2023-04-02T12:13:47;101634.22;;;6.29;67.40
16690;BME280;8458;52.220;9.884;2023-04-02T12:16:16;101634.63;;;6.33;65.28
16690;BME280;8458;52.220;9.884;2023-04-02T12:18:43;101645.41;;;6.41;65.29
16690;BME280;8458;52.220;9.884;2023-04-02T12:21:14;101632.50;;;6.35;65.94
16690;BME280;8458;52.220;9.884;2023-04-02T12:23:44;101634.81;;;6.51;66.03
16690;BME280;8458;52.220;9.884;2023-04-02T12:26:26;101631.56;;;6.81;66.48
16690;BME280;8458;52.220;9.884;2023-04-02T12:28:54;101641.03;;;6.98;63.85
16690;BME280;8458;52.220;9.884;2023-04-02T12:31:23;101635.72;;;7.04;63.19
16690;BME280;8458;52.220;9.884;2023-04-02T12:33:51;101634.81;;;7.16;63.35
16690;BME280;8458;52.220;9.884;2023-04-02T12:36:19;101635.34;;;7.39;65.05
16690;BME280;8458;52.220;9.884;2023-04-02T12:38:48;101631.19;;;7.61;64.17
16690;BME280;8458;52.220;9.884;2023-04-02T12:41:20;101635.47;;;7.89;63.67
16690;BME280;8458;52.220;9.884;2023-04-02T12:43:56;101630.69;;;8.03;62.74
16690;BME280;8458;52.220;9.884;2023-04-02T12:46:24;101630.22;;;8.06;60.98
16690;BME280;8458;52.220;9.884;2023-04-02T12:48:52;101613.13;;;8.16;60.44
16690;BME280;8458;52.220;9.884;2023-04-02T12:51:18;101628.84;;;8.40;61.95
16690;BME280;8458;52.220;9.884;2023-04-02T12:53:49;101624.75;;;8.50;59.71
16690;BME280;8458;52.220;9.884;2023-04-02T12:56:17;101617.47;;;8.55;56.86
16690;BME280;8458;52.220;9.884;2023-04-02T12:58:51;101626.00;;;8.54;57.88
16690;BME280;8458;52.220;9.884;2023-04-02T13:01:19;101618.78;;;8.53;59.73
16690;BME280;8458;52.220;9.884;2023-04-02T13:04:05;101618.53;;;8.54;59.49
16690;BME280;8458;52.220;9.884;2023-04-02T13:06:33;101618.31;;;8.56;58.88
16690;BME280;8458;52.220;9.884;2023-04-02T13:09:01;101615.66;;;8.42;57.52
16690;BME280;8458;52.220;9.884;2023-04-02T13:11:35;101624.75;;;8.50;58.60
16690;BME280;8458;52.220;9.884;2023-04-02T13:14:04;101626.28;;;8.46;59.14
16690;BME280;8458;52.220;9.884;2023-04-02T13:16:34;101623.84;;;8.56;57.74
16690;BME280;8458;52.220;9.884;2023-04-02T13:19:21;101619.25;;;8.68;58.86
16690;BME280;8458;52.220;9.884;2023-04-02T13:21:49;101635.06;;;8.79;58.86
16690;BME280;8458;52.220;9.884;2023-04-02T13:24:16;101639.75;;;8.79;57.84
16690;BME280;8458;52.220;9.884;2023-04-02T13:26:43;101637.47;;;8.94;57.79
16690;BME280;8458;52.220;9.884;2023-04-02T13:29:18;101638.38;;;9.07;57.80
16690;BME280;8458;52.220;9.884;2023-04-02T13:31:45;101639.84;;;9.09;58.09
16690;BME280;8458;52.220;9.884;2023-04-02T13:34:12;101639.53;;;9.18;58.66
16690;BME280;8458;52.220;9.884;2023-04-02T13:36:40;101633.41;;;9.15;58.41